Big Eddie — WDG2850 — position and weather

sailwx.info

Track history (hours):
 
Tides and Currents Weather Stations Pressure Air Temp Water Temp Dewpoint Dewpoint Depression Visibility Wind Speed Wind Dir Waves Ship Positions

Big Eddie

Owner: Crosby Marine Transportaion LLC, Golden Meadow, LA. More information available from US FCC via Universal Licensing System and Coast Guard Vessel Documentation Center.

Last reported at 2018-Jun-21 00:36 UTC. Time now 2018-Jun-24 14:24 UTC.
Position N 29°32' W 090°51'.

Length 22 m; draft 4 m.

Type: Towing. MMSI: 367519920.

Date/timePositionNaut miles runAvg speedWind from/ knotsBaromVisibWave heightAir tempDewpointWater temp
2018-Jun-21 00:36N 29°32' W 090°51'1 6.9
2018-Jun-21 00:29N 29°32' W 090°50'3 6.7
2018-Jun-20 23:59N 29°32' W 090°46'3 5.7
2018-Jun-20 23:30N 29°34' W 090°44'1 2.9
2018-Jun-20 23:00N 29°33' W 090°43'0 0.2
2018-Jun-20 22:30N 29°33' W 090°42'1 1.8
2018-Jun-20 22:00N 29°34' W 090°42'0 0.4
2018-Jun-20 21:30N 29°34' W 090°42'0 0.1
2018-Jun-20 21:00N 29°34' W 090°42'1 2.9
2018-Jun-20 20:30N 29°33' W 090°42'0 0.4
2018-Jun-20 20:00N 29°33' W 090°42'0 0.0
2018-Jun-20 19:30N 29°33' W 090°42'0 0.0
2018-Jun-20 19:00N 29°33' W 090°42'0 0.0
2018-Jun-20 18:30N 29°33' W 090°42'0 0.0
2018-Jun-20 18:00N 29°33' W 090°42'0 0.0
2018-Jun-20 17:30N 29°33' W 090°42'0 0.0
2018-Jun-20 17:00N 29°33' W 090°42'0 0.0
2018-Jun-20 16:30N 29°33' W 090°42'0 0.0
2018-Jun-20 16:00N 29°33' W 090°42'0 0.4
2018-Jun-20 15:30N 29°33' W 090°42'0 0.0
2018-Jun-20 15:00N 29°33' W 090°42'1 1.6
2018-Jun-20 14:29N 29°32' W 090°42'1 1.5
2018-Jun-20 14:00N 29°33' W 090°42'0 0.1
2018-Jun-20 13:30N 29°33' W 090°42'0 0.1
2018-Jun-20 13:00N 29°33' W 090°42'0 0.0
2018-Jun-20 12:30N 29°33' W 090°42'0 0.0
2018-Jun-20 12:00N 29°33' W 090°42'0 0.0
2018-Jun-20 11:30N 29°33' W 090°42'0 0.0
2018-Jun-20 10:59N 29°33' W 090°42'0 0.0
2018-Jun-20 10:30N 29°33' W 090°42'0 0.0
2018-Jun-20 10:00N 29°33' W 090°42'0 0.0
2018-Jun-20 09:30N 29°33' W 090°42'0 0.0
2018-Jun-20 09:00N 29°33' W 090°42'0 0.0
2018-Jun-20 08:30N 29°33' W 090°42'0 0.0
2018-Jun-20 08:00N 29°33' W 090°42'0 0.0
2018-Jun-20 07:30N 29°33' W 090°42'0 0.1
2018-Jun-20 07:00N 29°33' W 090°42'0 0.1
2018-Jun-20 06:30N 29°33' W 090°42'0 0.0
2018-Jun-20 06:00N 29°33' W 090°42'0 0.0
2018-Jun-20 05:30N 29°33' W 090°42'2 3.5
2018-Jun-20 05:00N 29°34' W 090°44'4 7.3
2018-Jun-20 04:30N 29°32' W 090°47'4 8.6
2018-Jun-20 03:59N 29°32' W 090°52'57 5.0
2018-Jun-19 16:40N 29°51' W 091°54'1 5.8
2018-Jun-19 16:30N 29°51' W 091°55'3 5.7
2018-Jun-19 15:59N 29°50' W 091°59'3 5.5
2018-Jun-19 15:30N 29°49' W 092°01'3 5.7
2018-Jun-19 15:00N 29°48' W 092°04'3 5.6
2018-Jun-19 14:30N 29°47' W 092°07'3 5.7
2018-Jun-19 14:00N 29°47' W 092°11'2 3.1
2018-Jun-19 13:30N 29°47' W 092°12'1 1.7
2018-Jun-19 13:00N 29°47' W 092°13'2 4.4
2018-Jun-19 12:30N 29°48' W 092°16'2 4.6
2018-Jun-19 12:00N 29°50' W 092°18'3 5.2
2018-Jun-19 11:22N 29°51' W 092°21'36 5.1
2018-Jun-19 04:18N 29°56' W 093°03'2 5.7
2018-Jun-19 04:00N 29°56' W 093°05'3 5.1
2018-Jun-19 03:30N 29°56' W 093°08'2 4.8
2018-Jun-19 03:00N 29°57' W 093°10'3 5.3
2018-Jun-19 02:30N 29°59' W 093°12'3 5.1
2018-Jun-19 02:00N 30°01' W 093°14'3 5.1
2018-Jun-19 01:30N 30°03' W 093°16'3 5.4
2018-Jun-19 01:00N 30°05' W 093°17'1 1.9
2018-Jun-19 00:30N 30°06' W 093°18'0 0.2
2018-Jun-19 00:00N 30°06' W 093°18'0 0.0
2018-Jun-18 23:30N 30°06' W 093°18'0 0.0
2018-Jun-18 23:01N 30°06' W 093°18'0 0.0
2018-Jun-18 22:31N 30°06' W 093°18'0 0.0
2018-Jun-18 22:00N 30°06' W 093°18'0 0.0
2018-Jun-18 21:30N 30°06' W 093°18'0 0.0
2018-Jun-18 21:01N 30°06' W 093°18'0 0.0
2018-Jun-18 20:31N 30°06' W 093°18'0 0.0
2018-Jun-18 20:00N 30°06' W 093°18'0 0.0
2018-Jun-18 19:30N 30°06' W 093°18'0 0.0
2018-Jun-18 19:01N 30°06' W 093°18'0 0.0
2018-Jun-18 18:30N 30°06' W 093°18'0 0.0
2018-Jun-18 18:01N 30°06' W 093°18'0 0.0
2018-Jun-18 17:30N 30°06' W 093°18'0 0.0
2018-Jun-18 17:00N 30°06' W 093°18'0 0.0
2018-Jun-18 16:31N 30°06' W 093°18'0 0.0
2018-Jun-18 16:01N 30°06' W 093°18'0 0.0
2018-Jun-18 15:30N 30°06' W 093°18'0 0.0
2018-Jun-18 15:00N 30°06' W 093°18'0 0.0
2018-Jun-18 14:30N 30°06' W 093°18'0 0.0
2018-Jun-18 14:00N 30°06' W 093°18'0 0.0
2018-Jun-18 13:31N 30°06' W 093°18'0 0.0
2018-Jun-18 13:01N 30°06' W 093°18'0 0.0
2018-Jun-18 12:30N 30°06' W 093°18'0 0.0
2018-Jun-18 12:00N 30°06' W 093°18'0 0.0
2018-Jun-18 11:30N 30°06' W 093°18'0 0.0
2018-Jun-18 11:00N 30°06' W 093°18'0 0.0
2018-Jun-18 10:30N 30°06' W 093°18'0 0.0
2018-Jun-18 10:01N 30°06' W 093°18'0 0.0
2018-Jun-18 09:31N 30°06' W 093°18'0 0.0
2018-Jun-18 09:00N 30°06' W 093°18'0 0.0
2018-Jun-18 08:31N 30°06' W 093°18'0 0.0
2018-Jun-18 08:01N 30°06' W 093°18'0 0.0
2018-Jun-18 07:30N 30°06' W 093°18'0 0.0
2018-Jun-18 07:00N 30°06' W 093°18'0 0.0
2018-Jun-18 06:30N 30°06' W 093°18'0 0.0
2018-Jun-18 06:00N 30°06' W 093°18'0 0.0
2018-Jun-18 05:31N 30°06' W 093°18'0 0.0
2018-Jun-18 05:01N 30°06' W 093°18'0 0.0
2018-Jun-18 04:30N 30°06' W 093°18'0 0.0
2018-Jun-18 04:00N 30°06' W 093°18'0 0.0
2018-Jun-18 03:31N 30°06' W 093°18'0 0.0
2018-Jun-18 03:00N 30°06' W 093°18'0 0.0
2018-Jun-18 02:30N 30°06' W 093°18'0 0.0
2018-Jun-18 02:01N 30°06' W 093°18'0 0.0
2018-Jun-18 01:30N 30°06' W 093°18'0 0.0
2018-Jun-18 01:00N 30°06' W 093°18'0 0.0
2018-Jun-18 00:30N 30°06' W 093°18'0 0.0
2018-Jun-18 00:00N 30°06' W 093°18'0 0.0
2018-Jun-17 23:30N 30°06' W 093°18'0 0.0
2018-Jun-17 23:00N 30°06' W 093°18'2 4.8
2018-Jun-17 22:31N 30°05' W 093°20'2 4.3
2018-Jun-17 22:01N 30°04' W 093°23'2 4.8
2018-Jun-17 21:30N 30°04' W 093°25'3 5.1
2018-Jun-17 21:01N 30°04' W 093°28'3 5.1
2018-Jun-17 20:29N 30°04' W 093°31'3 5.1
2018-Jun-17 19:59N 30°04' W 093°34'3 5.5
2018-Jun-17 19:29N 30°04' W 093°38'3 6.3
2018-Jun-17 19:00N 30°04' W 093°41'3 6.2
2018-Jun-17 18:30N 30°02' W 093°44'3 6.7
2018-Jun-17 18:01N 29°60' W 093°47'4 7.0
2018-Jun-17 17:30N 29°58' W 093°50'3 7.0
2018-Jun-17 17:01N 29°56' W 093°53'4 7.8
2018-Jun-17 16:31N 29°53' W 093°56'3 6.5
2018-Jun-17 16:00N 29°50' W 093°57'2 3.8
2018-Jun-17 15:30N 29°49' W 093°59'3 5.1
2018-Jun-17 15:01N 29°47' W 094°01'2 4.8
2018-Jun-17 14:31N 29°46' W 094°04'2 4.8
2018-Jun-17 14:01N 29°44' W 094°06'2 4.7
2018-Jun-17 13:30N 29°43' W 094°08'2 4.7
2018-Jun-17 13:01N 29°41' W 094°10'2 4.6
2018-Jun-17 12:30N 29°41' W 094°13'2 4.8
2018-Jun-17 12:00N 29°39' W 094°15'2 4.4
2018-Jun-17 11:30N 29°38' W 094°17'2 4.6
2018-Jun-17 11:00N 29°37' W 094°20'4 4.7
2018-Jun-17 10:15N 29°36' W 094°23'1 4.4
2018-Jun-17 09:59N 29°36' W 094°24'2 4.3
2018-Jun-17 09:28N 29°34' W 094°26'26 4.4
2018-Jun-17 03:36N 29°34' W 094°56'3 8.7
2018-Jun-17 03:16N 29°37' W 094°57'3 8.9
2018-Jun-17 02:58N 29°39' W 094°58'4 0.1
2018-Jun-15 13:58N 29°42' W 095°01'2 5.2
2018-Jun-15 13:30N 29°41' W 094°59'2 4.2
2018-Jun-15 12:54N 29°40' W 094°56'2 0.0
2018-Jun-13 15:03N 29°40' W 094°58'0 7.9
2018-Jun-13 15:00N 29°39' W 094°58'5 7.9
2018-Jun-13 14:20N 29°34' W 094°56'10 8.4
2018-Jun-13 13:06N 29°25' W 094°50'1 8.9
2018-Jun-13 12:59N 29°24' W 094°49'4 0.7
2018-Jun-13 06:49N 29°25' W 094°44'0 0.0
2018-Jun-13 03:54N 29°25' W 094°44'18 2.7
2018-Jun-12 21:20N 29°34' W 094°27'6 5.1
2018-Jun-12 20:10N 29°37' W 094°21'1 6.3
2018-Jun-12 19:59N 29°37' W 094°20'3 6.1
2018-Jun-12 19:30N 29°39' W 094°17'3 6.1
2018-Jun-12 19:00N 29°40' W 094°14'3 6.3
2018-Jun-12 18:30N 29°41' W 094°11'3 6.3
2018-Jun-12 18:00N 29°43' W 094°07'3 6.0
2018-Jun-12 17:30N 29°45' W 094°05'3 5.8
2018-Jun-12 17:00N 29°47' W 094°02'3 6.1
2018-Jun-12 16:30N 29°49' W 093°60'3 6.0
2018-Jun-12 16:00N 29°51' W 093°57'4 7.0
2018-Jun-12 15:30N 29°53' W 093°55'4 7.2
2018-Jun-12 15:00N 29°56' W 093°52'3 6.5
2018-Jun-12 14:30N 29°59' W 093°50'3 6.6
2018-Jun-12 14:00N 30°00' W 093°46'3 6.4
2018-Jun-12 13:30N 30°03' W 093°44'3 6.2
2018-Jun-12 13:00N 30°04' W 093°40'3 6.2
2018-Jun-12 12:28N 30°04' W 093°37'3 6.3
2018-Jun-12 12:00N 30°04' W 093°33'3 6.4
2018-Jun-12 11:30N 30°04' W 093°29'3 6.5
2018-Jun-12 11:00N 30°04' W 093°26'3 5.4
2018-Jun-12 10:29N 30°04' W 093°22'2 3.6
2018-Jun-12 10:00N 30°04' W 093°21'2 3.0
2018-Jun-12 09:30N 30°05' W 093°20'1 2.7
2018-Jun-12 09:00N 30°06' W 093°18'1 1.7
2018-Jun-12 08:30N 30°05' W 093°17'1 1.1
2018-Jun-12 07:59N 30°05' W 093°17'0 0.0
2018-Jun-12 07:30N 30°05' W 093°17'0 0.0
2018-Jun-12 07:00N 30°05' W 093°17'0 0.0
2018-Jun-12 06:30N 30°05' W 093°17'0 0.1
2018-Jun-12 06:00N 30°05' W 093°17'0 0.0
2018-Jun-12 05:30N 30°05' W 093°17'0 0.0
2018-Jun-12 05:00N 30°05' W 093°17'0 0.0
2018-Jun-12 04:30N 30°05' W 093°17'0 0.0
2018-Jun-12 04:00N 30°05' W 093°17'0 0.0
2018-Jun-12 03:30N 30°05' W 093°17'0 0.0
2018-Jun-12 03:00N 30°05' W 093°17'0 0.0
2018-Jun-12 02:30N 30°05' W 093°17'0 0.0
2018-Jun-12 02:00N 30°05' W 093°17'0 0.0
2018-Jun-12 01:30N 30°05' W 093°17'0 0.0
2018-Jun-12 01:00N 30°05' W 093°17'0 0.0
2018-Jun-12 00:30N 30°05' W 093°17'0 0.0
2018-Jun-12 00:00N 30°05' W 093°17'0 0.0
2018-Jun-11 23:30N 30°05' W 093°17'0 0.0
2018-Jun-11 23:00N 30°05' W 093°17'0 0.0
2018-Jun-11 22:30N 30°05' W 093°17'0 0.0
2018-Jun-11 22:00N 30°05' W 093°17'0 0.0
2018-Jun-11 21:30N 30°05' W 093°17'0 0.0
2018-Jun-11 21:00N 30°05' W 093°17'0 0.0
2018-Jun-11 20:30N 30°05' W 093°17'0 0.0
2018-Jun-11 20:00N 30°05' W 093°17'0 0.0
2018-Jun-11 19:30N 30°05' W 093°17'0 0.0
2018-Jun-11 19:00N 30°05' W 093°17'0 0.0
2018-Jun-11 18:30N 30°05' W 093°17'0 0.0
2018-Jun-11 18:00N 30°05' W 093°17'0 0.0
2018-Jun-11 17:30N 30°05' W 093°17'0 0.0
2018-Jun-11 17:00N 30°05' W 093°17'0 0.0
2018-Jun-11 16:30N 30°05' W 093°17'0 0.0
2018-Jun-11 16:00N 30°05' W 093°17'1 2.8
2018-Jun-11 15:30N 30°03' W 093°16'2 4.7
2018-Jun-11 15:00N 30°02' W 093°14'3 5.2
2018-Jun-11 14:30N 29°59' W 093°13'1 2.5
2018-Jun-11 14:00N 29°58' W 093°12'0 0.0
2018-Jun-11 13:30N 29°58' W 093°12'0 0.0
2018-Jun-11 13:00N 29°58' W 093°12'0 0.9
2018-Jun-11 12:30N 29°58' W 093°11'3 5.5
2018-Jun-11 12:00N 29°56' W 093°09'3 5.8
2018-Jun-11 11:30N 29°56' W 093°06'36 5.3
2018-Jun-11 04:39N 29°53' W 092°24'2 5.4
2018-Jun-11 04:21N 29°52' W 092°23'2 5.3
2018-Jun-11 04:00N 29°51' W 092°21'3 5.7
2018-Jun-11 03:30N 29°50' W 092°18'3 5.4
2018-Jun-11 03:00N 29°48' W 092°16'3 5.8
2018-Jun-11 02:30N 29°47' W 092°13'0 0.7
2018-Jun-11 02:00N 29°47' W 092°12'1 1.6
2018-Jun-11 01:30N 29°47' W 092°11'0 0.9
2018-Jun-11 01:00N 29°47' W 092°11'  
Track history (hours):
 
Tides and Currents Weather Stations Pressure Air Temp Water Temp Dewpoint Dewpoint Depression Visibility Wind Speed Wind Dir Waves Ship Positions

Big Eddie

Owner: Crosby Marine Transportaion LLC, Golden Meadow, LA. More information available from US FCC via Universal Licensing System and Coast Guard Vessel Documentation Center.

Last reported at 2018-Jun-21 00:36 UTC. Time now 2018-Jun-24 14:24 UTC.
Position N 29°32' W 090°51'.

Length 22 m; draft 4 m.

Type: Towing. MMSI: 367519920.

Date/timePositionNaut miles runAvg speedWind from/ knotsBaromVisibWave heightAir tempDewpointWater temp
2018-Jun-21 00:36N 29°32' W 090°51'1 6.9
2018-Jun-21 00:29N 29°32' W 090°50'3 6.7
2018-Jun-20 23:59N 29°32' W 090°46'3 5.7
2018-Jun-20 23:30N 29°34' W 090°44'1 2.9
2018-Jun-20 23:00N 29°33' W 090°43'0 0.2
2018-Jun-20 22:30N 29°33' W 090°42'1 1.8
2018-Jun-20 22:00N 29°34' W 090°42'0 0.4
2018-Jun-20 21:30N 29°34' W 090°42'0 0.1
2018-Jun-20 21:00N 29°34' W 090°42'1 2.9
2018-Jun-20 20:30N 29°33' W 090°42'0 0.4
2018-Jun-20 20:00N 29°33' W 090°42'0 0.0
2018-Jun-20 19:30N 29°33' W 090°42'0 0.0
2018-Jun-20 19:00N 29°33' W 090°42'0 0.0
2018-Jun-20 18:30N 29°33' W 090°42'0 0.0
2018-Jun-20 18:00N 29°33' W 090°42'0 0.0
2018-Jun-20 17:30N 29°33' W 090°42'0 0.0
2018-Jun-20 17:00N 29°33' W 090°42'0 0.0
2018-Jun-20 16:30N 29°33' W 090°42'0 0.0
2018-Jun-20 16:00N 29°33' W 090°42'0 0.4
2018-Jun-20 15:30N 29°33' W 090°42'0 0.0
2018-Jun-20 15:00N 29°33' W 090°42'1 1.6
2018-Jun-20 14:29N 29°32' W 090°42'1 1.5
2018-Jun-20 14:00N 29°33' W 090°42'0 0.1
2018-Jun-20 13:30N 29°33' W 090°42'0 0.1
2018-Jun-20 13:00N 29°33' W 090°42'0 0.0
2018-Jun-20 12:30N 29°33' W 090°42'0 0.0
2018-Jun-20 12:00N 29°33' W 090°42'0 0.0
2018-Jun-20 11:30N 29°33' W 090°42'0 0.0
2018-Jun-20 10:59N 29°33' W 090°42'0 0.0
2018-Jun-20 10:30N 29°33' W 090°42'0 0.0
2018-Jun-20 10:00N 29°33' W 090°42'0 0.0
2018-Jun-20 09:30N 29°33' W 090°42'0 0.0
2018-Jun-20 09:00N 29°33' W 090°42'0 0.0
2018-Jun-20 08:30N 29°33' W 090°42'0 0.0
2018-Jun-20 08:00N 29°33' W 090°42'0 0.0
2018-Jun-20 07:30N 29°33' W 090°42'0 0.1
2018-Jun-20 07:00N 29°33' W 090°42'0 0.1
2018-Jun-20 06:30N 29°33' W 090°42'0 0.0
2018-Jun-20 06:00N 29°33' W 090°42'0 0.0
2018-Jun-20 05:30N 29°33' W 090°42'2 3.5
2018-Jun-20 05:00N 29°34' W 090°44'4 7.3
2018-Jun-20 04:30N 29°32' W 090°47'4 8.6
2018-Jun-20 03:59N 29°32' W 090°52'57 5.0
2018-Jun-19 16:40N 29°51' W 091°54'1 5.8
2018-Jun-19 16:30N 29°51' W 091°55'3 5.7
2018-Jun-19 15:59N 29°50' W 091°59'3 5.5
2018-Jun-19 15:30N 29°49' W 092°01'3 5.7
2018-Jun-19 15:00N 29°48' W 092°04'3 5.6
2018-Jun-19 14:30N 29°47' W 092°07'3 5.7
2018-Jun-19 14:00N 29°47' W 092°11'2 3.1
2018-Jun-19 13:30N 29°47' W 092°12'1 1.7
2018-Jun-19 13:00N 29°47' W 092°13'2 4.4
2018-Jun-19 12:30N 29°48' W 092°16'2 4.6
2018-Jun-19 12:00N 29°50' W 092°18'3 5.2
2018-Jun-19 11:22N 29°51' W 092°21'36 5.1
2018-Jun-19 04:18N 29°56' W 093°03'2 5.7
2018-Jun-19 04:00N 29°56' W 093°05'3 5.1
2018-Jun-19 03:30N 29°56' W 093°08'2 4.8
2018-Jun-19 03:00N 29°57' W 093°10'3 5.3
2018-Jun-19 02:30N 29°59' W 093°12'3 5.1
2018-Jun-19 02:00N 30°01' W 093°14'3 5.1
2018-Jun-19 01:30N 30°03' W 093°16'3 5.4
2018-Jun-19 01:00N 30°05' W 093°17'1 1.9
2018-Jun-19 00:30N 30°06' W 093°18'0 0.2
2018-Jun-19 00:00N 30°06' W 093°18'0 0.0
2018-Jun-18 23:30N 30°06' W 093°18'0 0.0
2018-Jun-18 23:01N 30°06' W 093°18'0 0.0
2018-Jun-18 22:31N 30°06' W 093°18'0 0.0
2018-Jun-18 22:00N 30°06' W 093°18'0 0.0
2018-Jun-18 21:30N 30°06' W 093°18'0 0.0
2018-Jun-18 21:01N 30°06' W 093°18'0 0.0
2018-Jun-18 20:31N 30°06' W 093°18'0 0.0
2018-Jun-18 20:00N 30°06' W 093°18'0 0.0
2018-Jun-18 19:30N 30°06' W 093°18'0 0.0
2018-Jun-18 19:01N 30°06' W 093°18'0 0.0
2018-Jun-18 18:30N 30°06' W 093°18'0 0.0
2018-Jun-18 18:01N 30°06' W 093°18'0 0.0
2018-Jun-18 17:30N 30°06' W 093°18'0 0.0
2018-Jun-18 17:00N 30°06' W 093°18'0 0.0
2018-Jun-18 16:31N 30°06' W 093°18'0 0.0
2018-Jun-18 16:01N 30°06' W 093°18'0 0.0
2018-Jun-18 15:30N 30°06' W 093°18'0 0.0
2018-Jun-18 15:00N 30°06' W 093°18'0 0.0
2018-Jun-18 14:30N 30°06' W 093°18'0 0.0
2018-Jun-18 14:00N 30°06' W 093°18'0 0.0
2018-Jun-18 13:31N 30°06' W 093°18'0 0.0
2018-Jun-18 13:01N 30°06' W 093°18'0 0.0
2018-Jun-18 12:30N 30°06' W 093°18'0 0.0
2018-Jun-18 12:00N 30°06' W 093°18'0 0.0
2018-Jun-18 11:30N 30°06' W 093°18'0 0.0
2018-Jun-18 11:00N 30°06' W 093°18'0 0.0
2018-Jun-18 10:30N 30°06' W 093°18'0 0.0
2018-Jun-18 10:01N 30°06' W 093°18'0 0.0
2018-Jun-18 09:31N 30°06' W 093°18'0 0.0
2018-Jun-18 09:00N 30°06' W 093°18'0 0.0
2018-Jun-18 08:31N 30°06' W 093°18'0 0.0
2018-Jun-18 08:01N 30°06' W 093°18'0 0.0
2018-Jun-18 07:30N 30°06' W 093°18'0 0.0
2018-Jun-18 07:00N 30°06' W 093°18'0 0.0
2018-Jun-18 06:30N 30°06' W 093°18'0 0.0
2018-Jun-18 06:00N 30°06' W 093°18'0 0.0
2018-Jun-18 05:31N 30°06' W 093°18'0 0.0
2018-Jun-18 05:01N 30°06' W 093°18'0 0.0
2018-Jun-18 04:30N 30°06' W 093°18'0 0.0
2018-Jun-18 04:00N 30°06' W 093°18'0 0.0
2018-Jun-18 03:31N 30°06' W 093°18'0 0.0
2018-Jun-18 03:00N 30°06' W 093°18'0 0.0
2018-Jun-18 02:30N 30°06' W 093°18'0 0.0
2018-Jun-18 02:01N 30°06' W 093°18'0 0.0
2018-Jun-18 01:30N 30°06' W 093°18'0 0.0
2018-Jun-18 01:00N 30°06' W 093°18'0 0.0
2018-Jun-18 00:30N 30°06' W 093°18'0 0.0
2018-Jun-18 00:00N 30°06' W 093°18'0 0.0
2018-Jun-17 23:30N 30°06' W 093°18'0 0.0
2018-Jun-17 23:00N 30°06' W 093°18'2 4.8
2018-Jun-17 22:31N 30°05' W 093°20'2 4.3
2018-Jun-17 22:01N 30°04' W 093°23'2 4.8
2018-Jun-17 21:30N 30°04' W 093°25'3 5.1
2018-Jun-17 21:01N 30°04' W 093°28'3 5.1
2018-Jun-17 20:29N 30°04' W 093°31'3 5.1
2018-Jun-17 19:59N 30°04' W 093°34'3 5.5
2018-Jun-17 19:29N 30°04' W 093°38'3 6.3
2018-Jun-17 19:00N 30°04' W 093°41'3 6.2
2018-Jun-17 18:30N 30°02' W 093°44'3 6.7
2018-Jun-17 18:01N 29°60' W 093°47'4 7.0
2018-Jun-17 17:30N 29°58' W 093°50'3 7.0
2018-Jun-17 17:01N 29°56' W 093°53'4 7.8
2018-Jun-17 16:31N 29°53' W 093°56'3 6.5
2018-Jun-17 16:00N 29°50' W 093°57'2 3.8
2018-Jun-17 15:30N 29°49' W 093°59'3 5.1
2018-Jun-17 15:01N 29°47' W 094°01'2 4.8
2018-Jun-17 14:31N 29°46' W 094°04'2 4.8
2018-Jun-17 14:01N 29°44' W 094°06'2 4.7
2018-Jun-17 13:30N 29°43' W 094°08'2 4.7
2018-Jun-17 13:01N 29°41' W 094°10'2 4.6
2018-Jun-17 12:30N 29°41' W 094°13'2 4.8
2018-Jun-17 12:00N 29°39' W 094°15'2 4.4
2018-Jun-17 11:30N 29°38' W 094°17'2 4.6
2018-Jun-17 11:00N 29°37' W 094°20'4 4.7
2018-Jun-17 10:15N 29°36' W 094°23'1 4.4
2018-Jun-17 09:59N 29°36' W 094°24'2 4.3
2018-Jun-17 09:28N 29°34' W 094°26'26 4.4
2018-Jun-17 03:36N 29°34' W 094°56'3 8.7
2018-Jun-17 03:16N 29°37' W 094°57'3 8.9
2018-Jun-17 02:58N 29°39' W 094°58'4 0.1
2018-Jun-15 13:58N 29°42' W 095°01'2 5.2
2018-Jun-15 13:30N 29°41' W 094°59'2 4.2
2018-Jun-15 12:54N 29°40' W 094°56'2 0.0
2018-Jun-13 15:03N 29°40' W 094°58'0 7.9
2018-Jun-13 15:00N 29°39' W 094°58'5 7.9
2018-Jun-13 14:20N 29°34' W 094°56'10 8.4
2018-Jun-13 13:06N 29°25' W 094°50'1 8.9
2018-Jun-13 12:59N 29°24' W 094°49'4 0.7
2018-Jun-13 06:49N 29°25' W 094°44'0 0.0
2018-Jun-13 03:54N 29°25' W 094°44'18 2.7
2018-Jun-12 21:20N 29°34' W 094°27'6 5.1
2018-Jun-12 20:10N 29°37' W 094°21'1 6.3
2018-Jun-12 19:59N 29°37' W 094°20'3 6.1
2018-Jun-12 19:30N 29°39' W 094°17'3 6.1
2018-Jun-12 19:00N 29°40' W 094°14'3 6.3
2018-Jun-12 18:30N 29°41' W 094°11'3 6.3
2018-Jun-12 18:00N 29°43' W 094°07'3 6.0
2018-Jun-12 17:30N 29°45' W 094°05'3 5.8
2018-Jun-12 17:00N 29°47' W 094°02'3 6.1
2018-Jun-12 16:30N 29°49' W 093°60'3 6.0
2018-Jun-12 16:00N 29°51' W 093°57'4 7.0
2018-Jun-12 15:30N 29°53' W 093°55'4 7.2
2018-Jun-12 15:00N 29°56' W 093°52'3 6.5
2018-Jun-12 14:30N 29°59' W 093°50'3 6.6
2018-Jun-12 14:00N 30°00' W 093°46'3 6.4
2018-Jun-12 13:30N 30°03' W 093°44'3 6.2
2018-Jun-12 13:00N 30°04' W 093°40'3 6.2
2018-Jun-12 12:28N 30°04' W 093°37'3 6.3
2018-Jun-12 12:00N 30°04' W 093°33'3 6.4
2018-Jun-12 11:30N 30°04' W 093°29'3 6.5
2018-Jun-12 11:00N 30°04' W 093°26'3 5.4
2018-Jun-12 10:29N 30°04' W 093°22'2 3.6
2018-Jun-12 10:00N 30°04' W 093°21'2 3.0
2018-Jun-12 09:30N 30°05' W 093°20'1 2.7
2018-Jun-12 09:00N 30°06' W 093°18'1 1.7
2018-Jun-12 08:30N 30°05' W 093°17'1 1.1
2018-Jun-12 07:59N 30°05' W 093°17'0 0.0
2018-Jun-12 07:30N 30°05' W 093°17'0 0.0
2018-Jun-12 07:00N 30°05' W 093°17'0 0.0
2018-Jun-12 06:30N 30°05' W 093°17'0 0.1
2018-Jun-12 06:00N 30°05' W 093°17'0 0.0
2018-Jun-12 05:30N 30°05' W 093°17'0 0.0
2018-Jun-12 05:00N 30°05' W 093°17'0 0.0
2018-Jun-12 04:30N 30°05' W 093°17'0 0.0
2018-Jun-12 04:00N 30°05' W 093°17'0 0.0
2018-Jun-12 03:30N 30°05' W 093°17'0 0.0
2018-Jun-12 03:00N 30°05' W 093°17'0 0.0
2018-Jun-12 02:30N 30°05' W 093°17'0 0.0
2018-Jun-12 02:00N 30°05' W 093°17'0 0.0
2018-Jun-12 01:30N 30°05' W 093°17'0 0.0
2018-Jun-12 01:00N 30°05' W 093°17'0 0.0
2018-Jun-12 00:30N 30°05' W 093°17'0 0.0
2018-Jun-12 00:00N 30°05' W 093°17'0 0.0
2018-Jun-11 23:30N 30°05' W 093°17'0 0.0
2018-Jun-11 23:00N 30°05' W 093°17'0 0.0
2018-Jun-11 22:30N 30°05' W 093°17'0 0.0
2018-Jun-11 22:00N 30°05' W 093°17'0 0.0
2018-Jun-11 21:30N 30°05' W 093°17'0 0.0
2018-Jun-11 21:00N 30°05' W 093°17'0 0.0
2018-Jun-11 20:30N 30°05' W 093°17'0 0.0
2018-Jun-11 20:00N 30°05' W 093°17'0 0.0
2018-Jun-11 19:30N 30°05' W 093°17'0 0.0
2018-Jun-11 19:00N 30°05' W 093°17'0 0.0
2018-Jun-11 18:30N 30°05' W 093°17'0 0.0
2018-Jun-11 18:00N 30°05' W 093°17'0 0.0
2018-Jun-11 17:30N 30°05' W 093°17'0 0.0
2018-Jun-11 17:00N 30°05' W 093°17'0 0.0
2018-Jun-11 16:30N 30°05' W 093°17'0 0.0
2018-Jun-11 16:00N 30°05' W 093°17'1 2.8
2018-Jun-11 15:30N 30°03' W 093°16'2 4.7
2018-Jun-11 15:00N 30°02' W 093°14'3 5.2
2018-Jun-11 14:30N 29°59' W 093°13'1 2.5
2018-Jun-11 14:00N 29°58' W 093°12'0 0.0
2018-Jun-11 13:30N 29°58' W 093°12'0 0.0
2018-Jun-11 13:00N 29°58' W 093°12'0 0.9
2018-Jun-11 12:30N 29°58' W 093°11'3 5.5
2018-Jun-11 12:00N 29°56' W 093°09'3 5.8
2018-Jun-11 11:30N 29°56' W 093°06'36 5.3
2018-Jun-11 04:39N 29°53' W 092°24'2 5.4
2018-Jun-11 04:21N 29°52' W 092°23'2 5.3
2018-Jun-11 04:00N 29°51' W 092°21'3 5.7
2018-Jun-11 03:30N 29°50' W 092°18'3 5.4
2018-Jun-11 03:00N 29°48' W 092°16'3 5.8
2018-Jun-11 02:30N 29°47' W 092°13'0 0.7
2018-Jun-11 02:00N 29°47' W 092°12'1 1.6
2018-Jun-11 01:30N 29°47' W 092°11'0 0.9
2018-Jun-11 01:00N 29°47' W 092°11'  

Dump ship's entire track history